UCA4288 KELP-KIAH
Flight info
| Callsign | UCA4288 |
|---|---|
| Flight time | 1h 28m |
| Altitude | 35000 |
| Route | TDOWN3 SFL DCT FUSCO DCT DIESL TTORO3 |
| Aircraft | E145/M-SDFGIRW/S |
Departure
| Time | 2026-04-21 17:20 |
|---|---|
| Airport | El Paso International Airport (KELP) |
Arrival
| Time | 2026-04-21 18:48 |
|---|---|
| Airport | George Bush Intercontinental Airport (KIAH) |
| Time | Latitude | Longitude | Altitude | Speed | Heading |
|---|---|---|---|---|---|
| 2026-04-21 16:44 | 31.79966 | -106.39408 | 3922 ft | 0 kts | 339° |
| 2026-04-21 17:03 | 31.79967 | -106.39409 | 3922 ft | 0 kts | 339° |
| 2026-04-21 17:03 | 31.79966 | -106.39408 | 3922 ft | 0 kts | 339° |
| 2026-04-21 17:04 | 31.79958 | -106.39404 | 3922 ft | 2 kts | 339° |
| 2026-04-21 17:04 | 31.79944 | -106.39398 | 3922 ft | 2 kts | 339° |
| 2026-04-21 17:04 | 31.79930 | -106.39391 | 3922 ft | 2 kts | 339° |
| 2026-04-21 17:04 | 31.79923 | -106.39388 | 3921 ft | 0 kts | 339° |
| 2026-04-21 17:05 | 31.79931 | -106.39387 | 3922 ft | 1 kts | 32° |
| 2026-04-21 17:05 | 31.79933 | -106.39374 | 3922 ft | 1 kts | 108° |
| 2026-04-21 17:05 | 31.79925 | -106.39349 | 3922 ft | 4 kts | 92° |
| 2026-04-21 17:05 | 31.79928 | -106.39326 | 3923 ft | 1 kts | 79° |
| 2026-04-21 17:06 | 31.79930 | -106.39317 | 3923 ft | 0 kts | 78° |
| 2026-04-21 17:10 | 31.79931 | -106.39310 | 3923 ft | 1 kts | 77° |
| 2026-04-21 17:10 | 31.79933 | -106.39298 | 3923 ft | 2 kts | 77° |
| 2026-04-21 17:10 | 31.79939 | -106.39271 | 3924 ft | 4 kts | 74° |
| 2026-04-21 17:11 | 31.79960 | -106.39201 | 3924 ft | 8 kts | 76° |
| 2026-04-21 17:11 | 31.79970 | -106.39153 | 3924 ft | 9 kts | 76° |
| 2026-04-21 17:11 | 31.79988 | -106.39069 | 3924 ft | 11 kts | 79° |
| 2026-04-21 17:11 | 31.79989 | -106.38935 | 3925 ft | 12 kts | 89° |
| 2026-04-21 17:12 | 31.79989 | -106.38834 | 3927 ft | 12 kts | 91° |
| 2026-04-21 17:12 | 31.79989 | -106.38766 | 3928 ft | 12 kts | 89° |
| 2026-04-21 17:12 | 31.79990 | -106.38665 | 3930 ft | 12 kts | 90° |
| 2026-04-21 17:12 | 31.79990 | -106.38565 | 3932 ft | 12 kts | 90° |
| 2026-04-21 17:13 | 31.79991 | -106.38434 | 3935 ft | 12 kts | 89° |
| 2026-04-21 17:13 | 31.79992 | -106.38335 | 3936 ft | 11 kts | 90° |
| 2026-04-21 17:13 | 31.79992 | -106.38232 | 3937 ft | 13 kts | 90° |
| 2026-04-21 17:13 | 31.79993 | -106.38116 | 3937 ft | 14 kts | 90° |
| 2026-04-21 17:14 | 31.79993 | -106.38038 | 3939 ft | 14 kts | 90° |
| 2026-04-21 17:14 | 31.79989 | -106.37877 | 3940 ft | 15 kts | 92° |
| 2026-04-21 17:14 | 31.79985 | -106.37788 | 3941 ft | 16 kts | 93° |
| 2026-04-21 17:14 | 31.79977 | -106.37613 | 3944 ft | 15 kts | 94° |
| 2026-04-21 17:15 | 31.79971 | -106.37483 | 3946 ft | 15 kts | 94° |
| 2026-04-21 17:15 | 31.79966 | -106.37397 | 3947 ft | 16 kts | 94° |
| 2026-04-21 17:15 | 31.79960 | -106.37257 | 3947 ft | 17 kts | 94° |
| 2026-04-21 17:15 | 31.79950 | -106.37070 | 3951 ft | 16 kts | 94° |
| 2026-04-21 17:16 | 31.79945 | -106.36979 | 3953 ft | 16 kts | 94° |
| 2026-04-21 17:16 | 31.79936 | -106.36797 | 3955 ft | 17 kts | 93° |
| 2026-04-21 17:16 | 31.79929 | -106.36652 | 3955 ft | 18 kts | 94° |
| 2026-04-21 17:16 | 31.79921 | -106.36494 | 3955 ft | 20 kts | 93° |
| 2026-04-21 17:17 | 31.79915 | -106.36379 | 3953 ft | 22 kts | 94° |
| 2026-04-21 17:17 | 31.79908 | -106.36235 | 3950 ft | 17 kts | 94° |
| 2026-04-21 17:17 | 31.79899 | -106.36039 | 3947 ft | 13 kts | 90° |
| 2026-04-21 17:17 | 31.79941 | -106.35989 | 3946 ft | 7 kts | 7° |
| 2026-04-21 17:18 | 31.80000 | -106.35984 | 3946 ft | 9 kts | 4° |
| 2026-04-21 17:18 | 31.80047 | -106.35981 | 3946 ft | 8 kts | 2° |
| 2026-04-21 17:18 | 31.80069 | -106.36015 | 3946 ft | 6 kts | 276° |
| 2026-04-21 17:18 | 31.80071 | -106.36039 | 3947 ft | 1 kts | 272° |
| 2026-04-21 17:19 | 31.80082 | -106.36294 | 3952 ft | 66 kts | 273° |
| 2026-04-21 17:19 | 31.80105 | -106.36782 | 3953 ft | 111 kts | 273° |
| 2026-04-21 17:19 | 31.80156 | -106.37920 | 3953 ft | 163 kts | 274° |
| 2026-04-21 17:19 | 31.80240 | -106.39798 | 4464 ft | 183 kts | 272° |
| 2026-04-21 17:20 | 31.80117 | -106.41304 | 5040 ft | 191 kts | 248° |
| 2026-04-21 17:20 | 31.79653 | -106.42185 | 5384 ft | 200 kts | 225° |
| 2026-04-21 17:20 | 31.78410 | -106.42977 | 5970 ft | 213 kts | 190° |
| 2026-04-21 17:20 | 31.76935 | -106.42811 | 6654 ft | 222 kts | 158° |
| 2026-04-21 17:21 | 31.75693 | -106.41711 | 7328 ft | 232 kts | 130° |
| 2026-04-21 17:21 | 31.74806 | -106.40055 | 7773 ft | 253 kts | 116° |
| 2026-04-21 17:21 | 31.74103 | -106.38058 | 8091 ft | 279 kts | 111° |
| 2026-04-21 17:21 | 31.73221 | -106.35180 | 9181 ft | 283 kts | 110° |
| 2026-04-21 17:22 | 31.72787 | -106.33728 | 9734 ft | 284 kts | 110° |
| 2026-04-21 17:22 | 31.72224 | -106.30713 | 10643 ft | 294 kts | 89° |
| 2026-04-21 17:22 | 31.72284 | -106.29100 | 11021 ft | 302 kts | 88° |
| 2026-04-21 17:22 | 31.72355 | -106.26613 | 11545 ft | 314 kts | 88° |
| 2026-04-21 17:23 | 31.72502 | -106.24029 | 12084 ft | 325 kts | 78° |
| 2026-04-21 17:23 | 31.73827 | -106.20793 | 12778 ft | 337 kts | 56° |
| 2026-04-21 17:23 | 31.75071 | -106.18419 | 13277 ft | 347 kts | 58° |
| 2026-04-21 17:23 | 31.76339 | -106.15978 | 13772 ft | 356 kts | 57° |
| 2026-04-21 17:24 | 31.77194 | -106.14331 | 14105 ft | 362 kts | 58° |
| 2026-04-21 17:24 | 31.78721 | -106.10759 | 14752 ft | 373 kts | 75° |
| 2026-04-21 17:24 | 31.78939 | -106.07753 | 15374 ft | 376 kts | 92° |
| 2026-04-21 17:24 | 31.78893 | -106.05697 | 15804 ft | 377 kts | 91° |
| 2026-04-21 17:25 | 31.78845 | -106.01601 | 16627 ft | 381 kts | 91° |
| 2026-04-21 17:25 | 31.78808 | -105.98482 | 17194 ft | 385 kts | 91° |
| 2026-04-21 17:25 | 31.78782 | -105.96379 | 17602 ft | 387 kts | 91° |
| 2026-04-21 17:25 | 31.78729 | -105.92158 | 18416 ft | 390 kts | 91° |
| 2026-04-21 17:26 | 31.78703 | -105.90074 | 18839 ft | 390 kts | 91° |
| 2026-04-21 17:26 | 31.78648 | -105.85837 | 19758 ft | 389 kts | 91° |
| 2026-04-21 17:26 | 31.78607 | -105.82694 | 20412 ft | 389 kts | 91° |
| 2026-04-21 17:26 | 31.78563 | -105.79502 | 21055 ft | 390 kts | 91° |
| 2026-04-21 17:27 | 31.78534 | -105.77391 | 21463 ft | 390 kts | 91° |
| 2026-04-21 17:27 | 31.78475 | -105.73164 | 22306 ft | 390 kts | 91° |
| 2026-04-21 17:27 | 31.78445 | -105.71054 | 22707 ft | 391 kts | 91° |
| 2026-04-21 17:27 | 31.78316 | -105.67870 | 23311 ft | 391 kts | 94° |
| 2026-04-21 17:28 | 31.78069 | -105.63628 | 24245 ft | 389 kts | 94° |
| 2026-04-21 17:28 | 31.77887 | -105.60476 | 24892 ft | 388 kts | 94° |
| 2026-04-21 17:28 | 31.77769 | -105.58414 | 25321 ft | 387 kts | 94° |
| 2026-04-21 17:28 | 31.77527 | -105.54227 | 26187 ft | 385 kts | 94° |
| 2026-04-21 17:29 | 31.77347 | -105.51122 | 26805 ft | 384 kts | 94° |
| 2026-04-21 17:29 | 31.77165 | -105.47997 | 27434 ft | 382 kts | 94° |
| 2026-04-21 17:29 | 31.77046 | -105.45950 | 27833 ft | 382 kts | 94° |
| 2026-04-21 17:29 | 31.76864 | -105.42850 | 28424 ft | 381 kts | 94° |
| 2026-04-21 17:30 | 31.76681 | -105.39737 | 28994 ft | 380 kts | 95° |
| 2026-04-21 17:30 | 31.76438 | -105.35627 | 29737 ft | 380 kts | 95° |
| 2026-04-21 17:30 | 31.76255 | -105.32549 | 30305 ft | 378 kts | 95° |
| 2026-04-21 17:30 | 31.76132 | -105.30499 | 30633 ft | 378 kts | 95° |
| 2026-04-21 17:31 | 31.75950 | -105.27454 | 31058 ft | 380 kts | 95° |
| 2026-04-21 17:31 | 31.75702 | -105.23320 | 31632 ft | 383 kts | 95° |
| 2026-04-21 17:31 | 31.75513 | -105.20198 | 32136 ft | 382 kts | 95° |
| 2026-04-21 17:31 | 31.75326 | -105.17106 | 32642 ft | 381 kts | 95° |
| 2026-04-21 17:32 | 31.75200 | -105.15035 | 32948 ft | 381 kts | 95° |
| 2026-04-21 17:32 | 31.74947 | -105.10897 | 33536 ft | 381 kts | 95° |
| 2026-04-21 17:32 | 31.74704 | -105.07837 | 33990 ft | 381 kts | 100° |
| 2026-04-21 17:32 | 31.74418 | -105.05791 | 34298 ft | 381 kts | 100° |
| 2026-04-21 17:33 | 31.73997 | -105.02729 | 34793 ft | 380 kts | 100° |
| 2026-04-21 17:33 | 31.73434 | -104.98628 | 35211 ft | 384 kts | 100° |
| 2026-04-21 17:33 | 31.72567 | -104.92332 | 35227 ft | 393 kts | 100° |
| 2026-04-21 17:34 | 31.71681 | -104.85917 | 35236 ft | 401 kts | 100° |
| 2026-04-21 17:34 | 31.70765 | -104.79311 | 35240 ft | 409 kts | 100° |
| 2026-04-21 17:35 | 31.69974 | -104.73628 | 35246 ft | 415 kts | 100° |
| 2026-04-21 17:35 | 31.68862 | -104.65669 | 35237 ft | 423 kts | 100° |
| 2026-04-21 17:36 | 31.67901 | -104.58818 | 35235 ft | 429 kts | 100° |
| 2026-04-21 17:36 | 31.66927 | -104.51909 | 35223 ft | 435 kts | 100° |
| 2026-04-21 17:37 | 31.66096 | -104.46034 | 35219 ft | 440 kts | 100° |
| 2026-04-21 17:37 | 31.64915 | -104.37715 | 35210 ft | 445 kts | 101° |
| 2026-04-21 17:38 | 31.63890 | -104.30532 | 35193 ft | 450 kts | 101° |
| 2026-04-21 17:38 | 31.63030 | -104.24522 | 35183 ft | 452 kts | 101° |
| 2026-04-21 17:39 | 31.61807 | -104.16017 | 35179 ft | 456 kts | 101° |
| 2026-04-21 17:39 | 31.60751 | -104.08704 | 35168 ft | 459 kts | 101° |
| 2026-04-21 17:40 | 31.59854 | -104.02517 | 35166 ft | 461 kts | 101° |
| 2026-04-21 17:40 | 31.58600 | -103.93908 | 35161 ft | 464 kts | 101° |
| 2026-04-21 17:41 | 31.57505 | -103.86417 | 35156 ft | 467 kts | 101° |
| 2026-04-21 17:41 | 31.56408 | -103.78954 | 35158 ft | 469 kts | 101° |
| 2026-04-21 17:42 | 31.55292 | -103.71388 | 35156 ft | 471 kts | 101° |
| 2026-04-21 17:42 | 31.54178 | -103.63863 | 35157 ft | 473 kts | 101° |
| 2026-04-21 17:43 | 31.53235 | -103.57526 | 35153 ft | 475 kts | 101° |
| 2026-04-21 17:43 | 31.51909 | -103.48643 | 35146 ft | 477 kts | 101° |
| 2026-04-21 17:44 | 31.50949 | -103.42242 | 35146 ft | 479 kts | 101° |
| 2026-04-21 17:44 | 31.49605 | -103.33317 | 35141 ft | 481 kts | 102° |
| 2026-04-21 17:45 | 31.48442 | -103.25627 | 35134 ft | 482 kts | 102° |
| 2026-04-21 17:45 | 31.47272 | -103.17928 | 35135 ft | 483 kts | 102° |
| 2026-04-21 17:46 | 31.46097 | -103.10220 | 35132 ft | 484 kts | 102° |
| 2026-04-21 17:46 | 31.45111 | -103.03786 | 35135 ft | 484 kts | 102° |
| 2026-04-21 17:47 | 31.43716 | -102.94712 | 35136 ft | 486 kts | 102° |
| 2026-04-21 17:47 | 31.42520 | -102.86969 | 35136 ft | 487 kts | 102° |
| 2026-04-21 17:48 | 31.41315 | -102.79201 | 35138 ft | 487 kts | 102° |
| 2026-04-21 17:48 | 31.40098 | -102.71385 | 35138 ft | 488 kts | 102° |
| 2026-04-21 17:49 | 31.38883 | -102.63622 | 35138 ft | 489 kts | 102° |
| 2026-04-21 17:49 | 31.37855 | -102.57074 | 35143 ft | 490 kts | 102° |
| 2026-04-21 17:50 | 31.36623 | -102.49252 | 35145 ft | 491 kts | 102° |
| 2026-04-21 17:50 | 31.35175 | -102.40104 | 35147 ft | 493 kts | 102° |
| 2026-04-21 17:51 | 31.33927 | -102.32252 | 35138 ft | 494 kts | 102° |
| 2026-04-21 17:51 | 31.32671 | -102.24390 | 35142 ft | 494 kts | 102° |
| 2026-04-21 17:52 | 31.31405 | -102.16490 | 35143 ft | 494 kts | 102° |
| 2026-04-21 17:52 | 31.30144 | -102.08658 | 35140 ft | 495 kts | 102° |
| 2026-04-21 17:53 | 31.29081 | -102.02076 | 35141 ft | 495 kts | 102° |
| 2026-04-21 17:53 | 31.27584 | -101.92847 | 35147 ft | 495 kts | 102° |
| 2026-04-21 17:54 | 31.26516 | -101.86292 | 35142 ft | 496 kts | 102° |
| 2026-04-21 17:54 | 31.25003 | -101.77040 | 35147 ft | 496 kts | 102° |
| 2026-04-21 17:55 | 31.23713 | -101.69186 | 35146 ft | 497 kts | 102° |
| 2026-04-21 17:55 | 31.22403 | -101.61237 | 35150 ft | 498 kts | 102° |
| 2026-04-21 17:56 | 31.21092 | -101.53323 | 34960 ft | 498 kts | 102° |
| 2026-04-21 17:56 | 31.20443 | -101.49410 | 35136 ft | 494 kts | 102° |
| 2026-04-21 17:56 | 31.19785 | -101.45459 | 35156 ft | 494 kts | 102° |
| 2026-04-21 17:57 | 31.18467 | -101.37559 | 35152 ft | 495 kts | 102° |
| 2026-04-21 17:57 | 31.17292 | -101.29642 | 35145 ft | 496 kts | 95° |
| 2026-04-21 17:58 | 31.16820 | -101.21609 | 35145 ft | 496 kts | 96° |
| 2026-04-21 17:58 | 31.16218 | -101.13641 | 35143 ft | 497 kts | 96° |
| 2026-04-21 17:59 | 31.15599 | -101.05630 | 35154 ft | 497 kts | 96° |
| 2026-04-21 17:59 | 31.14969 | -100.97575 | 35149 ft | 498 kts | 96° |
| 2026-04-21 18:00 | 31.14335 | -100.89529 | 35155 ft | 499 kts | 95° |
| 2026-04-21 18:00 | 31.13697 | -100.81480 | 35155 ft | 500 kts | 96° |
| 2026-04-21 18:01 | 31.13057 | -100.73473 | 35158 ft | 500 kts | 96° |
| 2026-04-21 18:01 | 31.12403 | -100.65370 | 35167 ft | 501 kts | 95° |
| 2026-04-21 18:02 | 31.11749 | -100.57322 | 35166 ft | 502 kts | 95° |
| 2026-04-21 18:02 | 31.11088 | -100.49252 | 35176 ft | 502 kts | 95° |
| 2026-04-21 18:03 | 31.10420 | -100.41155 | 35187 ft | 503 kts | 95° |
| 2026-04-21 18:03 | 31.09748 | -100.33068 | 35181 ft | 504 kts | 96° |
| 2026-04-21 18:04 | 31.09068 | -100.24966 | 35172 ft | 504 kts | 96° |
| 2026-04-21 18:04 | 31.08383 | -100.16845 | 35175 ft | 504 kts | 96° |
| 2026-04-21 18:05 | 31.07693 | -100.08737 | 35178 ft | 504 kts | 96° |
| 2026-04-21 18:05 | 31.06997 | -100.00619 | 35183 ft | 504 kts | 96° |
| 2026-04-21 18:06 | 31.06416 | -99.93895 | 35184 ft | 504 kts | 96° |
| 2026-04-21 18:06 | 31.05712 | -99.85788 | 35188 ft | 505 kts | 96° |
| 2026-04-21 18:07 | 31.04882 | -99.76305 | 35183 ft | 506 kts | 96° |
| 2026-04-21 18:07 | 31.04162 | -99.68154 | 35181 ft | 506 kts | 96° |
| 2026-04-21 18:08 | 31.03562 | -99.61401 | 35177 ft | 506 kts | 96° |
| 2026-04-21 18:08 | 31.02712 | -99.51907 | 35180 ft | 507 kts | 96° |
| 2026-04-21 18:09 | 31.01970 | -99.43679 | 35182 ft | 507 kts | 96° |
| 2026-04-21 18:09 | 31.01230 | -99.35523 | 35184 ft | 508 kts | 96° |
| 2026-04-21 18:10 | 31.00481 | -99.27344 | 35165 ft | 508 kts | 96° |
| 2026-04-21 18:10 | 31.00233 | -99.24643 | 35290 ft | 511 kts | 96° |
| 2026-04-21 18:10 | 30.99729 | -99.19175 | 35158 ft | 508 kts | 96° |
| 2026-04-21 18:11 | 30.99350 | -99.15090 | 35384 ft | 508 kts | 96° |
| 2026-04-21 18:11 | 30.98970 | -99.11006 | 35291 ft | 510 kts | 96° |
| 2026-04-21 18:11 | 30.98583 | -99.06855 | 35158 ft | 513 kts | 96° |
| 2026-04-21 18:11 | 30.98197 | -99.02725 | 34963 ft | 513 kts | 96° |
| 2026-04-21 18:12 | 30.97817 | -98.98681 | 35381 ft | 508 kts | 96° |
| 2026-04-21 18:12 | 30.97431 | -98.94588 | 35162 ft | 513 kts | 96° |
| 2026-04-21 18:12 | 30.96642 | -98.86247 | 35163 ft | 513 kts | 96° |
| 2026-04-21 18:13 | 30.95660 | -98.77990 | 35179 ft | 511 kts | 102° |
| 2026-04-21 18:13 | 30.94459 | -98.69817 | 35182 ft | 512 kts | 100° |
| 2026-04-21 18:14 | 30.92734 | -98.57485 | 35189 ft | 512 kts | 99° |
| 2026-04-21 18:15 | 30.91582 | -98.49276 | 35182 ft | 512 kts | 99° |
| 2026-04-21 18:15 | 30.90618 | -98.42435 | 35182 ft | 513 kts | 99° |
| 2026-04-21 18:16 | 30.89271 | -98.32919 | 35177 ft | 513 kts | 100° |
| 2026-04-21 18:16 | 30.88101 | -98.24702 | 35184 ft | 512 kts | 100° |
| 2026-04-21 18:17 | 30.86941 | -98.16584 | 35187 ft | 511 kts | 100° |
| 2026-04-21 18:17 | 30.85770 | -98.08437 | 35184 ft | 511 kts | 100° |
| 2026-04-21 18:18 | 30.84794 | -98.01670 | 35185 ft | 510 kts | 100° |
| 2026-04-21 18:18 | 30.83420 | -97.92200 | 35193 ft | 510 kts | 100° |
| 2026-04-21 18:19 | 30.82230 | -97.84083 | 35205 ft | 510 kts | 100° |
| 2026-04-21 18:19 | 30.81035 | -97.75970 | 35208 ft | 510 kts | 100° |
| 2026-04-21 18:20 | 30.79840 | -97.67897 | 35216 ft | 511 kts | 100° |
| 2026-04-21 18:20 | 30.78631 | -97.59757 | 35219 ft | 511 kts | 100° |
| 2026-04-21 18:21 | 30.77419 | -97.51634 | 35211 ft | 512 kts | 100° |
| 2026-04-21 18:21 | 30.76211 | -97.43578 | 35177 ft | 495 kts | 100° |
| 2026-04-21 18:21 | 30.75619 | -97.39642 | 34771 ft | 488 kts | 100° |
| 2026-04-21 18:22 | 30.75036 | -97.35779 | 33926 ft | 492 kts | 100° |
| 2026-04-21 18:22 | 30.74437 | -97.31808 | 32981 ft | 497 kts | 101° |
| 2026-04-21 18:22 | 30.74036 | -97.29162 | 32395 ft | 499 kts | 101° |
| 2026-04-21 18:22 | 30.73239 | -97.23904 | 31325 ft | 499 kts | 100° |
| 2026-04-21 18:23 | 30.72642 | -97.19980 | 30539 ft | 498 kts | 100° |
| 2026-04-21 18:23 | 30.72038 | -97.16013 | 29684 ft | 499 kts | 101° |
| 2026-04-21 18:23 | 30.71433 | -97.12046 | 28815 ft | 499 kts | 101° |
| 2026-04-21 18:23 | 30.70828 | -97.08097 | 28043 ft | 496 kts | 100° |
| 2026-04-21 18:24 | 30.70241 | -97.04266 | 27721 ft | 482 kts | 100° |
| 2026-04-21 18:24 | 30.69658 | -97.00471 | 27223 ft | 474 kts | 100° |
| 2026-04-21 18:24 | 30.69080 | -96.96717 | 26611 ft | 469 kts | 100° |
| 2026-04-21 18:24 | 30.68511 | -96.93021 | 26110 ft | 462 kts | 100° |
| 2026-04-21 18:25 | 30.67947 | -96.89374 | 25531 ft | 457 kts | 100° |
| 2026-04-21 18:25 | 30.67392 | -96.85794 | 24983 ft | 453 kts | 100° |
| 2026-04-21 18:25 | 30.66833 | -96.82188 | 24699 ft | 450 kts | 100° |
| 2026-04-21 18:25 | 30.66289 | -96.78687 | 24438 ft | 446 kts | 100° |
| 2026-04-21 18:26 | 30.65739 | -96.75158 | 24126 ft | 443 kts | 100° |
| 2026-04-21 18:26 | 30.65198 | -96.71664 | 23819 ft | 440 kts | 100° |
| 2026-04-21 18:26 | 30.64653 | -96.68200 | 23541 ft | 436 kts | 100° |
| 2026-04-21 18:26 | 30.64105 | -96.64735 | 23179 ft | 435 kts | 100° |
| 2026-04-21 18:27 | 30.63742 | -96.62435 | 22977 ft | 432 kts | 100° |
| 2026-04-21 18:27 | 30.63036 | -96.57964 | 22274 ft | 426 kts | 100° |
| 2026-04-21 18:27 | 30.62678 | -96.55702 | 21859 ft | 424 kts | 100° |
| 2026-04-21 18:27 | 30.61978 | -96.51291 | 21113 ft | 418 kts | 100° |
| 2026-04-21 18:28 | 30.61630 | -96.49098 | 20720 ft | 416 kts | 100° |
| 2026-04-21 18:28 | 30.60937 | -96.44742 | 19962 ft | 411 kts | 101° |
| 2026-04-21 18:28 | 30.60072 | -96.41608 | 19373 ft | 404 kts | 119° |
| 2026-04-21 18:28 | 30.58522 | -96.38940 | 18823 ft | 397 kts | 128° |
| 2026-04-21 18:29 | 30.57441 | -96.37224 | 18440 ft | 395 kts | 128° |
| 2026-04-21 18:29 | 30.55318 | -96.33859 | 17702 ft | 389 kts | 129° |
| 2026-04-21 18:29 | 30.53718 | -96.31327 | 17161 ft | 385 kts | 129° |
| 2026-04-21 18:29 | 30.52169 | -96.28878 | 16618 ft | 378 kts | 129° |
| 2026-04-21 18:30 | 30.50621 | -96.26432 | 15894 ft | 375 kts | 129° |
| 2026-04-21 18:30 | 30.49086 | -96.24009 | 15207 ft | 372 kts | 129° |
| 2026-04-21 18:30 | 30.47570 | -96.21616 | 14590 ft | 366 kts | 129° |
| 2026-04-21 18:30 | 30.46079 | -96.19264 | 13964 ft | 361 kts | 129° |
| 2026-04-21 18:31 | 30.44594 | -96.16925 | 13333 ft | 357 kts | 129° |
| 2026-04-21 18:31 | 30.43146 | -96.14643 | 12698 ft | 353 kts | 129° |
| 2026-04-21 18:31 | 30.41718 | -96.12392 | 12581 ft | 332 kts | 130° |
| 2026-04-21 18:31 | 30.40405 | -96.10325 | 12555 ft | 313 kts | 130° |
| 2026-04-21 18:32 | 30.39147 | -96.08348 | 12347 ft | 302 kts | 130° |
| 2026-04-21 18:32 | 30.37890 | -96.06374 | 11884 ft | 302 kts | 130° |
| 2026-04-21 18:32 | 30.36635 | -96.04467 | 11488 ft | 297 kts | 137° |
| 2026-04-21 18:32 | 30.34980 | -96.03171 | 11061 ft | 284 kts | 164° |
| 2026-04-21 18:33 | 30.33110 | -96.02460 | 10638 ft | 281 kts | 166° |
| 2026-04-21 18:33 | 30.31262 | -96.01769 | 10260 ft | 278 kts | 167° |
| 2026-04-21 18:33 | 30.29440 | -96.01093 | 9862 ft | 276 kts | 167° |
| 2026-04-21 18:33 | 30.27602 | -96.00415 | 9467 ft | 274 kts | 167° |
| 2026-04-21 18:34 | 30.25809 | -95.99754 | 9111 ft | 271 kts | 166° |
| 2026-04-21 18:34 | 30.24026 | -95.99098 | 8733 ft | 269 kts | 166° |
| 2026-04-21 18:34 | 30.22241 | -95.98441 | 8348 ft | 267 kts | 166° |
| 2026-04-21 18:34 | 30.20468 | -95.97790 | 7990 ft | 264 kts | 166° |
| 2026-04-21 18:35 | 30.19334 | -95.97372 | 7935 ft | 256 kts | 166° |
| 2026-04-21 18:35 | 30.17156 | -95.96570 | 7903 ft | 236 kts | 166° |
| 2026-04-21 18:35 | 30.15616 | -95.96005 | 7921 ft | 229 kts | 166° |
| 2026-04-21 18:35 | 30.14098 | -95.95448 | 7917 ft | 224 kts | 167° |
| 2026-04-21 18:36 | 30.12630 | -95.94906 | 7912 ft | 219 kts | 166° |
| 2026-04-21 18:36 | 30.11191 | -95.94374 | 7902 ft | 214 kts | 167° |
| 2026-04-21 18:36 | 30.09783 | -95.93854 | 7747 ft | 214 kts | 166° |
| 2026-04-21 18:36 | 30.08834 | -95.93504 | 7602 ft | 214 kts | 166° |
| 2026-04-21 18:37 | 30.06944 | -95.92806 | 7365 ft | 213 kts | 165° |
| 2026-04-21 18:37 | 30.05543 | -95.92288 | 7211 ft | 211 kts | 165° |
| 2026-04-21 18:37 | 30.04135 | -95.91769 | 7073 ft | 210 kts | 165° |
| 2026-04-21 18:37 | 30.02754 | -95.91224 | 6923 ft | 212 kts | 155° |
| 2026-04-21 18:38 | 30.01681 | -95.90055 | 6923 ft | 215 kts | 129° |
| 2026-04-21 18:38 | 30.00810 | -95.88650 | 6923 ft | 214 kts | 129° |
| 2026-04-21 18:38 | 29.99944 | -95.87266 | 6931 ft | 214 kts | 129° |
| 2026-04-21 18:38 | 29.99251 | -95.85742 | 6933 ft | 219 kts | 103° |
| 2026-04-21 18:39 | 29.99207 | -95.83974 | 6939 ft | 223 kts | 92° |
| 2026-04-21 18:39 | 29.99215 | -95.82179 | 6933 ft | 226 kts | 92° |
| 2026-04-21 18:39 | 29.99231 | -95.80363 | 6926 ft | 227 kts | 92° |
| 2026-04-21 18:39 | 29.99246 | -95.78542 | 6938 ft | 229 kts | 92° |
| 2026-04-21 18:40 | 29.99259 | -95.76698 | 6947 ft | 226 kts | 92° |
| 2026-04-21 18:40 | 29.99270 | -95.74952 | 6831 ft | 217 kts | 92° |
| 2026-04-21 18:40 | 29.99276 | -95.73782 | 6660 ft | 215 kts | 92° |
| 2026-04-21 18:40 | 29.99284 | -95.71516 | 6319 ft | 213 kts | 92° |
| 2026-04-21 18:41 | 29.99288 | -95.70377 | 6135 ft | 211 kts | 92° |
| 2026-04-21 18:41 | 29.99296 | -95.68127 | 5760 ft | 210 kts | 93° |
| 2026-04-21 18:41 | 29.99300 | -95.66469 | 5474 ft | 208 kts | 93° |
| 2026-04-21 18:41 | 29.99305 | -95.64817 | 5184 ft | 206 kts | 93° |
| 2026-04-21 18:42 | 29.99309 | -95.63168 | 4894 ft | 203 kts | 93° |
| 2026-04-21 18:42 | 29.99313 | -95.61544 | 4606 ft | 201 kts | 93° |
| 2026-04-21 18:42 | 29.99317 | -95.59953 | 4325 ft | 198 kts | 93° |
| 2026-04-21 18:42 | 29.99321 | -95.58387 | 4047 ft | 195 kts | 93° |
| 2026-04-21 18:43 | 29.99324 | -95.56837 | 3774 ft | 193 kts | 93° |
| 2026-04-21 18:43 | 29.99327 | -95.55302 | 3505 ft | 190 kts | 94° |
| 2026-04-21 18:43 | 29.99329 | -95.53795 | 3241 ft | 187 kts | 94° |
| 2026-04-21 18:43 | 29.99331 | -95.52312 | 2981 ft | 184 kts | 93° |
| 2026-04-21 18:44 | 29.99333 | -95.50845 | 2728 ft | 181 kts | 93° |
| 2026-04-21 18:44 | 29.99336 | -95.49421 | 2480 ft | 175 kts | 92° |
| 2026-04-21 18:44 | 29.99338 | -95.48080 | 2240 ft | 161 kts | 93° |
| 2026-04-21 18:44 | 29.99339 | -95.46841 | 2036 ft | 147 kts | 93° |
| 2026-04-21 18:45 | 29.99340 | -95.45712 | 1854 ft | 134 kts | 92° |
| 2026-04-21 18:45 | 29.99341 | -95.44688 | 1677 ft | 121 kts | 92° |
| 2026-04-21 18:45 | 29.99341 | -95.43736 | 1512 ft | 118 kts | 92° |
| 2026-04-21 18:45 | 29.99342 | -95.42797 | 1357 ft | 118 kts | 92° |
| 2026-04-21 18:46 | 29.99342 | -95.41835 | 1196 ft | 121 kts | 91° |
| 2026-04-21 18:46 | 29.99342 | -95.40852 | 1037 ft | 124 kts | 91° |
| 2026-04-21 18:46 | 29.99343 | -95.39860 | 867 ft | 124 kts | 90° |
| 2026-04-21 18:46 | 29.99343 | -95.38860 | 701 ft | 124 kts | 90° |
| 2026-04-21 18:47 | 29.99345 | -95.37870 | 535 ft | 123 kts | 88° |
| 2026-04-21 18:47 | 29.99349 | -95.36884 | 386 ft | 125 kts | 89° |
| 2026-04-21 18:47 | 29.99344 | -95.35879 | 230 ft | 127 kts | 88° |
| 2026-04-21 18:47 | 29.99343 | -95.34862 | 98 ft | 119 kts | 89° |
| 2026-04-21 18:48 | 29.99343 | -95.34070 | 98 ft | 67 kts | 90° |
| 2026-04-21 18:48 | 29.99343 | -95.33709 | 98 ft | 32 kts | 90° |
| 2026-04-21 18:48 | 29.99346 | -95.33473 | 98 ft | 28 kts | 91° |
| 2026-04-21 18:48 | 29.99291 | -95.33252 | 97 ft | 25 kts | 116° |
| 2026-04-21 18:49 | 29.99233 | -95.33134 | 96 ft | 15 kts | 121° |
| 2026-04-21 18:49 | 29.99180 | -95.33039 | 95 ft | 11 kts | 140° |
| 2026-04-21 18:49 | 29.99154 | -95.33029 | 95 ft | 12 kts | 175° |
| 2026-04-21 18:49 | 29.98973 | -95.33028 | 95 ft | 18 kts | 180° |
| 2026-04-21 18:50 | 29.98839 | -95.33027 | 95 ft | 20 kts | 179° |
| 2026-04-21 18:50 | 29.98705 | -95.33026 | 95 ft | 15 kts | 180° |
| 2026-04-21 18:50 | 29.98583 | -95.33025 | 95 ft | 19 kts | 180° |
| 2026-04-21 18:50 | 29.98442 | -95.33026 | 95 ft | 19 kts | 179° |
| 2026-04-21 18:51 | 29.98339 | -95.33026 | 95 ft | 11 kts | 184° |
| 2026-04-21 18:51 | 29.98303 | -95.33107 | 95 ft | 14 kts | 269° |
| 2026-04-21 18:51 | 29.98303 | -95.33238 | 95 ft | 17 kts | 270° |
| 2026-04-21 18:51 | 29.98300 | -95.33391 | 96 ft | 19 kts | 271° |
| 2026-04-21 18:52 | 29.98303 | -95.33549 | 97 ft | 18 kts | 275° |
| 2026-04-21 18:52 | 29.98315 | -95.33697 | 98 ft | 18 kts | 275° |
| 2026-04-21 18:52 | 29.98317 | -95.33827 | 98 ft | 15 kts | 269° |
| 2026-04-21 18:52 | 29.98317 | -95.33943 | 98 ft | 12 kts | 274° |
| 2026-04-21 18:53 | 29.98340 | -95.34033 | 98 ft | 11 kts | 304° |
| 2026-04-21 18:53 | 29.98375 | -95.34117 | 98 ft | 12 kts | 277° |
| 2026-04-21 18:53 | 29.98377 | -95.34225 | 98 ft | 14 kts | 270° |
| 2026-04-21 18:53 | 29.98377 | -95.34317 | 98 ft | 5 kts | 273° |
| 2026-04-21 18:54 | 29.98417 | -95.34341 | 98 ft | 8 kts | 359° |
| 2026-04-21 18:54 | 29.98478 | -95.34341 | 98 ft | 6 kts | 1° |
| 2026-04-21 18:54 | 29.98504 | -95.34354 | 98 ft | 3 kts | 303° |
| 2026-04-21 18:54 | 29.98510 | -95.34371 | 98 ft | 2 kts | 289° |
| 2026-04-21 18:55 | 29.98513 | -95.34380 | 98 ft | 1 kts | 288° |
| 2026-04-21 18:55 | 29.98515 | -95.34389 | 98 ft | 0 kts | 288° |